createdAt,value
2023-05-19T00:02:58.489Z,967.43
2023-05-19T00:07:59.685Z,967.36
2023-05-19T00:13:01.363Z,967.37
2023-05-19T00:18:03.396Z,967.31
2023-05-19T00:23:04.431Z,967.29
2023-05-19T00:28:06.225Z,967.16
2023-05-19T00:38:08.812Z,967.16
2023-05-19T01:28:25.216Z,966.86
2023-05-19T01:43:30.696Z,966.92
2023-05-19T02:13:41.664Z,966.9
2023-05-19T02:28:47.474Z,966.82
2023-05-19T02:58:56.676Z,966.69
2023-05-19T03:29:07.955Z,966.55
2023-05-19T03:34:09.195Z,966.51
2023-05-19T03:39:10.481Z,966.51
2023-05-19T03:44:12.350Z,966.47
2023-05-19T03:49:14.231Z,966.46
2023-05-19T03:54:15.818Z,966.47
2023-05-19T03:59:17.433Z,966.5
2023-05-19T04:04:18.797Z,966.53
2023-05-19T04:09:20.021Z,966.51
2023-05-19T04:14:21.769Z,966.47
2023-05-19T04:19:23.793Z,966.5
2023-05-19T04:24:25.437Z,966.48
2023-05-19T04:29:27.514Z,966.51
2023-05-19T04:34:29.051Z,966.49
2023-05-19T04:39:30.976Z,966.51
2023-05-19T04:44:33.096Z,966.47
2023-05-19T04:49:34.903Z,966.45
2023-05-19T04:54:36.901Z,966.47
2023-05-19T04:59:38.420Z,966.45
2023-05-19T05:04:40.054Z,966.46
2023-05-19T05:09:41.855Z,966.43
2023-05-19T05:14:43.045Z,966.43
2023-05-19T05:19:44.338Z,966.32
2023-05-19T05:24:46.428Z,966.21
2023-05-19T05:29:48.030Z,966.17
2023-05-19T05:34:49.693Z,966.17
2023-05-19T05:39:51.096Z,966.23
2023-05-19T05:44:52.461Z,966.23
2023-05-19T05:49:54.335Z,966.31
2023-05-19T05:54:56.246Z,966.24
2023-05-19T05:59:57.632Z,966.31
2023-05-19T06:04:59.501Z,966.31
2023-05-19T06:10:01.315Z,966.35
2023-05-19T06:15:02.575Z,966.35
2023-05-19T06:20:03.820Z,966.29
2023-05-19T06:25:05.015Z,966.29
2023-05-19T06:30:06.867Z,966.25
2023-05-19T06:35:08.190Z,966.32
2023-05-19T06:40:10.128Z,966.26
2023-05-19T06:45:11.535Z,966.35
2023-05-19T06:50:12.898Z,966.32
2023-05-19T06:55:14.228Z,966.37
2023-05-19T07:00:17.898Z,966.37
2023-05-19T07:05:17.277Z,966.37
2023-05-19T07:10:18.763Z,966.42
2023-05-19T07:15:20.828Z,966.32
2023-05-19T07:20:22.106Z,966.29
2023-05-19T07:25:23.364Z,966.39
2023-05-19T07:30:24.706Z,966.33
2023-05-19T07:35:26.378Z,966.43
2023-05-19T07:40:28.044Z,966.3
2023-05-19T07:45:29.975Z,966.35
2023-05-19T07:50:32.248Z,966.39
2023-05-19T07:55:34.008Z,966.33
2023-05-19T08:00:35.892Z,966.37
2023-05-19T08:05:37.264Z,966.37
2023-05-19T08:10:39.095Z,966.29
2023-05-19T08:15:40.891Z,966.29
2023-05-19T08:20:42.005Z,966.22
2023-05-19T08:25:43.486Z,966.25
2023-05-19T08:30:44.689Z,966.19
2023-05-19T08:35:46.761Z,966.29
2023-05-19T08:40:48.653Z,966.28
2023-05-19T08:45:50.545Z,966.24
2023-05-19T08:50:51.949Z,966.22
2023-05-19T08:55:53.335Z,966.17
2023-05-19T09:00:54.468Z,966.25
2023-05-19T09:05:55.653Z,966.17
2023-05-19T09:10:57.539Z,966.18
2023-05-19T09:15:59.017Z,966.25
2023-05-19T09:21:00.957Z,966.21
2023-05-19T09:26:02.200Z,966.23
2023-05-19T09:31:03.845Z,966.14
2023-05-19T09:36:05.650Z,966.09
2023-05-19T09:41:07.837Z,966.15
2023-05-19T09:46:10.090Z,966.07
2023-05-19T09:51:10.784Z,966.14
2023-05-19T09:56:12.314Z,966.13
2023-05-19T10:01:13.823Z,966.09
2023-05-19T10:06:15.378Z,966.06
2023-05-19T10:11:17.025Z,966.03
2023-05-19T10:16:19.167Z,966.02
2023-05-19T10:21:20.774Z,965.98
2023-05-19T10:26:22.191Z,966.01
2023-05-19T10:31:23.468Z,966.04
2023-05-19T10:36:24.836Z,966.01
2023-05-19T10:41:26.128Z,966.02
2023-05-19T10:46:28.024Z,966.01
2023-05-19T10:51:29.389Z,965.99
2023-05-19T10:56:31.228Z,965.96
2023-05-19T11:01:33.233Z,965.96
2023-05-19T11:06:35.185Z,965.95
2023-05-19T11:11:37.163Z,965.93
2023-05-19T11:16:39.176Z,965.87
2023-05-19T11:21:41.138Z,965.85
2023-05-19T11:26:42.540Z,965.8
2023-05-19T11:31:44.198Z,965.88
2023-05-19T11:36:45.335Z,965.82
2023-05-19T11:41:46.582Z,965.77
2023-05-19T11:46:48.104Z,965.85
2023-05-19T11:51:49.971Z,965.75
2023-05-19T11:56:51.485Z,965.69
2023-05-19T12:01:53.177Z,965.79
2023-05-19T12:06:55.074Z,965.77
2023-05-19T12:11:56.960Z,965.78
2023-05-19T12:16:58.747Z,965.74
2023-05-19T12:22:02.169Z,965.73
2023-05-19T12:27:02.190Z,965.75
2023-05-19T12:32:04.359Z,965.67
2023-05-19T12:37:05.875Z,965.64
2023-05-19T12:42:07.626Z,965.6
2023-05-19T12:47:15.180Z,965.59
2023-05-19T12:52:16.383Z,965.55
2023-05-19T12:57:17.926Z,965.46
2023-05-19T13:02:20.194Z,965.52
2023-05-19T13:07:21.392Z,965.49
2023-05-19T13:12:22.925Z,965.41
2023-05-19T13:17:25.099Z,965.45
2023-05-19T13:22:26.477Z,965.35
2023-05-19T13:27:27.944Z,965.27
2023-05-19T13:32:29.659Z,965.19
2023-05-19T13:37:31.142Z,965.12
2023-05-19T13:42:32.678Z,965.05
2023-05-19T13:47:34.156Z,964.98
2023-05-19T13:52:36.055Z,964.93
2023-05-19T13:57:37.304Z,964.88
2023-05-19T14:02:38.857Z,964.86
2023-05-19T14:07:40.511Z,964.82
2023-05-19T14:12:58.567Z,964.7
2023-05-19T14:17:43.345Z,964.67
2023-05-19T14:22:45.185Z,964.72
2023-05-19T14:27:46.473Z,964.75
2023-05-19T14:32:47.751Z,964.73
2023-05-19T14:37:49.191Z,964.66
2023-05-19T14:42:50.778Z,964.59
2023-05-19T14:47:52.838Z,964.64
2023-05-19T14:52:54.260Z,964.69
2023-05-19T14:57:55.783Z,964.6
2023-05-19T15:02:57.647Z,964.57
2023-05-19T15:07:58.884Z,964.56
2023-05-19T15:13:00.634Z,964.63
2023-05-19T15:18:02.494Z,964.61
2023-05-19T15:23:04.257Z,964.57
2023-05-19T15:28:05.606Z,964.45
2023-05-19T16:48:33.792Z,963.84
2023-05-19T17:13:41.562Z,963.63
2023-05-19T17:38:49.602Z,963.6
2023-05-19T18:09:00.187Z,963.58
2023-05-19T18:29:07.600Z,963.7
2023-05-19T18:34:08.870Z,963.59
2023-05-19T18:39:11.000Z,963.55
2023-05-19T18:44:13.025Z,963.58
2023-05-19T18:49:14.858Z,963.48
2023-05-19T18:54:16.965Z,963.55
2023-05-19T18:59:18.557Z,963.59
2023-05-19T19:04:20.545Z,963.66
2023-05-19T19:09:21.995Z,963.68
2023-05-19T19:14:23.988Z,963.68
2023-05-19T19:19:26.148Z,963.65
2023-05-19T19:24:27.876Z,963.7
2023-05-19T19:29:29.292Z,963.67
2023-05-19T19:34:31.236Z,963.74
2023-05-19T19:39:32.710Z,963.78
2023-05-19T19:44:34.224Z,963.75
2023-05-19T19:49:35.868Z,963.72
2023-05-19T19:54:37.063Z,963.73
2023-05-19T19:59:38.847Z,963.77
2023-05-19T20:04:40.455Z,963.79
2023-05-19T20:09:42.090Z,963.74
2023-05-19T20:14:43.817Z,963.75
2023-05-19T20:19:45.154Z,963.73
2023-05-19T20:24:47.075Z,963.61
2023-05-19T20:29:48.501Z,963.59
2023-05-19T20:34:50.226Z,963.56
2023-05-19T20:39:51.753Z,963.52
2023-05-19T20:44:53.055Z,963.47
2023-05-19T20:49:55.034Z,963.48
2023-05-19T20:54:57.165Z,963.42
2023-05-19T20:59:59.155Z,963.5
2023-05-19T21:05:00.638Z,963.52
2023-05-19T21:10:01.885Z,963.5
2023-05-19T21:15:03.251Z,963.52
2023-05-19T21:20:04.687Z,963.49
2023-05-19T21:25:06.204Z,963.48
2023-05-19T21:30:07.480Z,963.44
2023-05-19T21:35:09.454Z,963.55
2023-05-19T21:40:10.697Z,963.6
2023-05-19T21:45:12.392Z,963.58
2023-05-19T21:50:13.786Z,963.53
2023-05-19T21:55:15.219Z,963.52
2023-05-19T22:00:17.370Z,963.46
2023-05-19T22:05:19.105Z,963.43
2023-05-19T22:10:21.062Z,963.45
2023-05-19T22:15:22.652Z,963.41
2023-05-19T22:20:23.895Z,963.4
2023-05-19T22:25:25.199Z,963.36
2023-05-19T22:30:26.479Z,963.38
2023-05-19T22:35:27.936Z,963.28
2023-05-19T22:40:29.194Z,963.21
2023-05-19T22:45:30.739Z,963.11
2023-05-19T22:50:32.493Z,963.13
2023-05-19T22:55:34.674Z,963.26
2023-05-19T23:00:35.986Z,963.23
2023-05-19T23:05:37.659Z,963.15
2023-05-19T23:10:39.188Z,963.12
2023-05-19T23:15:41.119Z,963.09
2023-05-19T23:20:42.362Z,963.06
2023-05-19T23:25:45.225Z,962.99
2023-05-19T23:30:46.399Z,962.96
2023-05-19T23:35:48.298Z,962.97
2023-05-19T23:40:49.570Z,962.88
2023-05-19T23:45:51.759Z,962.87
2023-05-19T23:50:52.925Z,962.85
2023-05-19T23:55:56.420Z,962.82
